Time;durP1;ratioP1;P1;durP2;ratioP2;P2;SDS_P1;SDS_P2;PMS_P1;PMS_P2;Temp;Humidity;BMP_temperature;BMP_pressure;BME280_temperature;BME280_humidity;BME280_pressure;Samples;Min_cycle;Max_cycle;Signal;HPM_P1;HPM_P2
2022/12/14 00:04:37;;;;;;;50.20;28.70;;;-3273.80;91.50;;;;;;5063173;28;20397;-76
2022/12/14 00:07:02;;;;;;;44.90;27.92;;;-3273.80;91.40;;;;;;5036046;28;20041;-76
2022/12/14 00:09:28;;;;;;;45.05;28.10;;;-3273.70;91.30;;;;;;5052117;28;20405;-78
2022/12/14 00:11:54;;;;;;;46.63;27.40;;;-3273.70;91.10;;;;;;5035556;28;20084;-77
2022/12/14 00:14:19;;;;;;;46.47;28.05;;;-3273.60;91.00;;;;;;5052498;28;20045;-76
2022/12/14 00:16:45;;;;;;;48.75;28.05;;;-3273.60;91.30;;;;;;5052217;28;20422;-77
2022/12/14 00:19:12;;;;;;;46.42;29.38;;;-3273.60;91.40;;;;;;5034699;28;20132;-77
2022/12/14 00:21:38;;;;;;;47.55;28.77;;;-3273.50;91.40;;;;;;5064026;28;20059;-77
2022/12/14 00:24:04;;;;;;;49.45;29.67;;;-3273.50;91.40;;;;;;5072250;28;20485;-78
2022/12/14 00:26:31;;;;;;;49.42;28.52;;;-3273.50;91.20;;;;;;5072030;28;20400;-77
2022/12/14 00:28:57;;;;;;;49.80;28.80;;;-3273.40;91.20;;;;;;5072025;28;20048;-78
2022/12/14 00:31:24;;;;;;;46.58;28.65;;;-3273.40;91.20;;;;;;5055207;28;20040;-76
2022/12/14 00:33:50;;;;;;;48.88;28.50;;;-3273.40;91.20;;;;;;5071935;28;20047;-75
2022/12/14 00:39:56;;;;;;;41.83;25.77;;;-3273.30;91.00;;;;;;5071695;28;20043;-77
2022/12/14 00:42:22;;;;;;;46.53;28.95;;;-3273.20;90.90;;;;;;5071792;28;20432;-77
2022/12/14 00:44:47;;;;;;;47.55;27.08;;;-3273.20;90.90;;;;;;5054969;28;20068;-77
2022/12/14 00:47:13;;;;;;;49.28;27.85;;;-3273.10;91.00;;;;;;5071796;28;20059;-77
2022/12/14 00:49:39;;;;;;;45.72;28.15;;;-3273.10;91.10;;;;;;5071640;28;20098;-77
2022/12/14 00:52:04;;;;;;;46.75;27.85;;;-3273.10;91.10;;;;;;5071839;28;20105;-77
2022/12/14 00:54:30;;;;;;;44.20;26.15;;;-3273.10;91.00;;;;;;5071707;28;20127;-76
2022/12/14 00:56:56;;;;;;;45.50;28.33;;;-3273.10;90.80;;;;;;5071087;28;20049;-77
2022/12/14 00:59:21;;;;;;;46.42;27.25;;;-3273.00;90.90;;;;;;5071650;28;20147;-76
2022/12/14 01:01:47;;;;;;;44.58;27.58;;;-3273.10;91.00;;;;;;5071764;28;20055;-78
2022/12/14 01:04:16;;;;;;;48.17;27.05;;;-3273.00;91.00;;;;;;5071687;28;20076;-77
2022/12/14 01:06:46;;;;;;;42.65;26.95;;;-3273.00;91.00;;;;;;5055142;28;20045;-77
2022/12/14 01:09:12;;;;;;;41.13;26.20;;;-3273.00;90.90;;;;;;5071456;28;20045;-76
2022/12/14 01:11:38;;;;;;;41.20;27.55;;;-3273.00;91.00;;;;;;5070957;28;20432;-76
2022/12/14 01:14:05;;;;;;;49.13;27.90;;;-3273.00;91.00;;;;;;5035113;28;20037;-78
2022/12/14 01:16:31;;;;;;;46.42;25.55;;;-3273.00;91.00;;;;;;5051512;28;20041;-77
2022/12/14 01:18:58;;;;;;;48.78;28.75;;;-3273.00;91.00;;;;;;5051392;28;20048;-77
2022/12/14 01:21:24;;;;;;;42.25;26.02;;;-3272.90;90.90;;;;;;5035072;28;20123;-77
2022/12/14 01:23:52;;;;;;;46.40;28.15;;;-3272.80;90.70;;;;;;5051294;28;20061;-77
2022/12/14 01:26:21;;;;;;;44.22;26.02;;;-3272.80;90.70;;;;;;5035043;28;20041;-78
2022/12/14 01:28:51;;;;;;;46.97;27.08;;;-3272.80;90.80;;;;;;5051908;28;20392;-76
2022/12/14 01:46:00;;;;;;;43.22;27.15;;;-3272.80;91.30;;;;;;5076120;28;20031;-77
2022/12/14 01:48:26;;;;;;;46.78;26.20;;;-3272.80;91.30;;;;;;5073753;28;20040;-76
2022/12/14 01:50:51;;;;;;;41.30;26.60;;;-3272.80;91.20;;;;;;5058173;28;20044;-78
2022/12/14 02:00:40;;;;;;;49.08;28.45;;;-3272.80;90.70;;;;;;5074924;28;20118;-76
2022/12/14 02:03:21;;;;;;;42.45;25.55;;;-3272.80;90.50;;;;;;5074694;28;20110;-77
2022/12/14 02:05:54;;;;;;;41.80;25.52;;;-3272.80;90.50;;;;;;5066545;28;20036;-77
2022/12/14 02:08:22;;;;;;;53.10;29.47;;;-3272.80;90.40;;;;;;5054688;28;20056;-77
2022/12/14 02:10:49;;;;;;;48.33;28.23;;;-3272.80;90.50;;;;;;5054311;28;20045;-77
2022/12/14 02:13:33;;;;;;;51.92;29.63;;;-3272.80;90.40;;;;;;5038221;28;20040;-77
2022/12/14 02:15:59;;;;;;;42.00;24.92;;;-3272.80;90.40;;;;;;5054544;28;20099;-76
2022/12/14 02:18:28;;;;;;;42.92;25.55;;;-3272.80;90.20;;;;;;5054584;28;20436;-77
2022/12/14 02:21:21;;;;;;;46.03;25.40;;;-3272.80;90.20;;;;;;5054319;28;20052;-77
2022/12/14 02:24:06;;;;;;;39.05;23.02;;;-3272.60;89.90;;;;;;5053734;28;20095;-76
2022/12/14 02:27:02;;;;;;;43.22;24.23;;;-3272.50;89.50;;;;;;5054646;28;20041;-76
2022/12/14 02:29:39;;;;;;;39.92;23.33;;;-3272.50;89.30;;;;;;5037643;28;20053;-77
2022/12/14 02:32:25;;;;;;;41.15;23.70;;;-3272.30;89.10;;;;;;5054157;28;20182;-76
2022/12/14 02:35:20;;;;;;;39.13;23.70;;;-3272.30;89.10;;;;;;5054077;28;20041;-76
2022/12/14 02:38:00;;;;;;;38.45;22.45;;;-3272.10;89.00;;;;;;5057657;28;20033;-77
2022/12/14 02:40:37;;;;;;;35.03;22.92;;;-3272.20;89.20;;;;;;5073520;28;20128;-77
2022/12/14 02:43:22;;;;;;;45.28;26.25;;;-3272.20;89.30;;;;;;5074050;28;20040;-77
2022/12/14 02:45:53;;;;;;;42.72;23.55;;;-3272.20;89.60;;;;;;5057321;28;20040;-76
2022/12/14 02:48:25;;;;;;;40.40;24.25;;;-3272.20;89.50;;;;;;5074384;28;20101;-77
2022/12/14 02:51:00;;;;;;;43.00;24.73;;;-3272.20;89.50;;;;;;5073710;28;20045;-77
2022/12/14 02:54:01;;;;;;;40.15;23.38;;;-3272.10;89.30;;;;;;5072048;28;20480;-77
2022/12/14 02:56:35;;;;;;;42.28;22.80;;;-3272.10;89.30;;;;;;5048167;28;20052;-77
2022/12/14 02:59:05;;;;;;;40.88;22.15;;;-3272.00;89.20;;;;;;5053653;28;20041;-77
2022/12/14 03:01:33;;;;;;;40.13;23.63;;;-3271.90;89.20;;;;;;5036911;28;20060;-76
2022/12/14 03:03:59;;;;;;;39.33;24.83;;;-3271.90;89.30;;;;;;5053716;28;20389;-76
2022/12/14 03:06:26;;;;;;;38.58;23.33;;;-3271.90;89.30;;;;;;5037165;28;20094;-76
2022/12/14 03:09:03;;;;;;;41.72;25.17;;;-3271.80;89.30;;;;;;5053698;28;20503;-76
2022/12/14 03:11:51;;;;;;;42.53;25.15;;;-3271.80;89.50;;;;;;5054973;28;20041;-76
2022/12/14 03:14:31;;;;;;;39.53;23.58;;;-3271.80;89.60;;;;;;5053310;28;20401;-76
2022/12/14 03:17:04;;;;;;;38.45;23.00;;;-3271.80;89.70;;;;;;5073666;28;20404;-77
2022/12/14 03:19:35;;;;;;;41.67;23.75;;;-3271.80;89.70;;;;;;5056896;28;20101;-77
2022/12/14 03:22:10;;;;;;;43.25;24.35;;;-3271.80;89.90;;;;;;5073223;28;20048;-77
2022/12/14 03:24:43;;;;;;;42.67;24.67;;;-3271.80;90.00;;;;;;5055981;28;20059;-76
2022/12/14 03:27:37;;;;;;;42.20;22.95;;;-3271.90;90.10;;;;;;5056633;28;20127;-76
2022/12/14 03:30:09;;;;;;;42.78;24.40;;;-3271.90;90.20;;;;;;5071931;28;20063;-77
2022/12/14 03:32:38;;;;;;;43.45;24.55;;;-3271.90;90.10;;;;;;5056405;28;20036;-76
2022/12/14 03:35:12;;;;;;;42.70;25.50;;;-3271.90;90.10;;;;;;5072965;28;20036;-76
2022/12/14 03:37:44;;;;;;;41.47;24.95;;;-3271.80;90.00;;;;;;5073127;28;20044;-77
2022/12/14 03:40:13;;;;;;;44.75;23.83;;;-3271.80;90.00;;;;;;5072192;28;20416;-76
2022/12/14 03:42:52;;;;;;;42.42;25.35;;;-3271.80;90.10;;;;;;5072770;28;20087;-76
2022/12/14 03:45:41;;;;;;;46.42;24.80;;;-3271.80;90.20;;;;;;5072843;28;20052;-76
2022/12/14 03:48:36;;;;;;;42.63;23.85;;;-3271.80;90.20;;;;;;5069597;28;20049;-76
2022/12/14 03:51:12;;;;;;;36.63;23.30;;;-3271.80;90.20;;;;;;5072473;28;20417;-76
2022/12/14 03:53:48;;;;;;;41.65;24.23;;;-3271.80;90.10;;;;;;5071443;28;20548;-76
2022/12/14 03:56:33;;;;;;;41.42;24.65;;;-3271.70;90.00;;;;;;5072586;28;20496;-77
2022/12/14 03:59:09;;;;;;;38.33;23.60;;;-3271.70;90.00;;;;;;5072569;28;20086;-76
2022/12/14 04:01:58;;;;;;;37.50;22.85;;;-3271.70;90.00;;;;;;5055432;28;20056;-76
2022/12/14 04:04:40;;;;;;;42.92;23.60;;;-3271.70;90.10;;;;;;5072384;28;20123;-76
2022/12/14 04:07:38;;;;;;;43.67;25.48;;;-3271.70;90.20;;;;;;5072758;28;20480;-76
2022/12/14 04:18:55;;;;;;;48.33;24.50;;;-3271.70;90.30;;;;;;5072432;28;20074;-76
2022/12/14 04:22:05;;;;;;;40.25;23.95;;;-3271.70;90.40;;;;;;5026719;28;20049;-76
2022/12/14 04:28:08;;;;;;;39.63;23.52;;;-3271.80;90.40;;;;;;5054586;28;20713;-76
2022/12/14 04:30:57;;;;;;;39.72;23.15;;;-3271.70;90.30;;;;;;5043597;28;20044;-76
2022/12/14 04:36:08;;;;;;;;;;;-3271.70;90.10;;;;;;5072687;28;20041;-76
2022/12/14 04:38:37;;;;;;;42.08;24.27;;;-3271.70;90.00;;;;;;5055450;28;20378;-76
2022/12/14 04:41:08;;;;;;;42.97;23.65;;;-3271.60;90.00;;;;;;5072082;28;20037;-76
2022/12/14 04:43:39;;;;;;;40.10;23.92;;;-3271.60;90.00;;;;;;5071882;28;20476;-76
2022/12/14 04:46:09;;;;;;;44.95;25.27;;;-3271.70;90.10;;;;;;5071829;28;20036;-76
2022/12/14 04:49:12;;;;;;;39.20;25.20;;;-3271.60;90.10;;;;;;5051717;28;20049;-76
2022/12/14 04:52:22;;;;;;;42.45;22.50;;;-3271.60;90.00;;;;;;5051600;28;20518;-76
2022/12/14 04:55:00;;;;;;;43.28;23.50;;;-3271.60;90.00;;;;;;5040570;28;20056;-76
2022/12/14 04:57:41;;;;;;;42.47;23.95;;;-3271.60;90.00;;;;;;5051972;28;20063;-76
2022/12/14 05:00:09;;;;;;;39.38;24.13;;;-3271.50;90.00;;;;;;5051871;28;20502;-76
2022/12/14 05:02:56;;;;;;;42.67;25.42;;;-3271.50;89.90;;;;;;5051436;28;20072;-76
2022/12/14 05:05:40;;;;;;;45.95;25.45;;;-3271.50;89.90;;;;;;5034559;28;20040;-76
2022/12/14 05:08:35;;;;;;;48.13;26.40;;;-3271.50;89.90;;;;;;5051546;28;20048;-76
2022/12/14 05:11:29;;;;;;;44.53;24.48;;;-3271.50;90.10;;;;;;5051466;28;20461;-76
2022/12/14 05:13:54;;;;;;;45.92;26.48;;;-3271.50;90.20;;;;;;5051424;28;20045;-76
2022/12/14 05:16:22;;;;;;;42.58;25.27;;;-3271.50;90.10;;;;;;5051659;28;20041;-76
2022/12/14 05:18:49;;;;;;;43.10;23.85;;;-3271.50;90.20;;;;;;5051661;28;20048;-75
2022/12/14 05:24:01;;;;;;;40.22;23.88;;;-3271.40;90.00;;;;;;5071470;28;20055;-76
2022/12/14 05:26:28;;;;;;;45.40;25.42;;;-3271.40;90.20;;;;;;5071737;28;20067;-75
2022/12/14 05:28:54;;;;;;;44.53;25.55;;;-3271.40;90.20;;;;;;5054776;28;20072;-76
2022/12/14 05:31:20;;;;;;;43.55;25.00;;;-3271.40;90.20;;;;;;5071105;28;20083;-75
2022/12/14 05:33:45;;;;;;;45.55;25.80;;;-3271.40;90.20;;;;;;5071261;28;20378;-75
2022/12/14 05:36:11;;;;;;;38.15;24.90;;;-3271.40;90.30;;;;;;5053838;28;20064;-76
2022/12/14 05:38:37;;;;;;;42.67;25.38;;;-3271.40;90.30;;;;;;5071461;28;20041;-75
2022/12/14 05:41:02;;;;;;;43.97;25.55;;;-3271.30;90.40;;;;;;5054742;28;20044;-76
2022/12/14 05:43:28;;;;;;;44.70;25.50;;;-3271.40;90.50;;;;;;5071149;28;20045;-76
2022/12/14 05:45:58;;;;;;;45.53;25.10;;;-3271.40;90.50;;;;;;5071225;28;20089;-77
2022/12/14 05:48:24;;;;;;;44.70;24.08;;;-3271.40;90.40;;;;;;5071156;28;20075;-74
2022/12/14 05:50:50;;;;;;;47.78;25.90;;;-3271.40;90.60;;;;;;5070941;28;20079;-73
2022/12/14 05:53:16;;;;;;;45.88;24.30;;;-3271.40;90.60;;;;;;5054371;28;20036;-73
2022/12/14 05:55:49;;;;;;;41.10;24.27;;;-3271.40;90.50;;;;;;5071081;28;20040;-72
2022/12/14 05:58:15;;;;;;;44.40;24.25;;;-3271.40;90.40;;;;;;5054476;28;20040;-73
2022/12/14 06:00:40;;;;;;;44.42;25.42;;;-3271.30;90.30;;;;;;5070741;28;20078;-72
2022/12/14 06:03:06;;;;;;;42.05;24.52;;;-3271.30;90.30;;;;;;5054425;28;20133;-73
2022/12/14 06:05:32;;;;;;;39.30;24.33;;;-3271.30;90.40;;;;;;5054332;28;20041;-72
2022/12/14 06:07:58;;;;;;;42.38;24.25;;;-3271.30;90.30;;;;;;5054259;28;20040;-73
2022/12/14 06:10:23;;;;;;;46.45;25.23;;;-3271.30;90.50;;;;;;5037521;28;20051;-73
2022/12/14 06:12:50;;;;;;;44.67;24.50;;;-3271.30;90.50;;;;;;5070822;28;20036;-72
2022/12/14 06:15:15;;;;;;;39.47;25.20;;;-3271.30;90.50;;;;;;5070915;28;20041;-73
2022/12/14 06:17:45;;;;;;;43.53;23.92;;;-3271.30;90.50;;;;;;5073891;28;20093;-72
2022/12/14 06:20:12;;;;;;;40.22;23.73;;;-3271.40;90.60;;;;;;5057671;28;20040;-72
2022/12/14 06:22:38;;;;;;;43.33;24.63;;;-3271.30;90.50;;;;;;5074376;28;20047;-72
2022/12/14 06:25:04;;;;;;;41.92;24.13;;;-3271.30;90.60;;;;;;5074401;28;20080;-74
2022/12/14 06:27:30;;;;;;;40.90;23.13;;;-3271.30;90.50;;;;;;5057578;28;20083;-74
2022/12/14 06:29:56;;;;;;;39.10;22.75;;;-3271.20;90.40;;;;;;5057455;28;20083;-74
2022/12/14 06:32:22;;;;;;;39.42;22.75;;;-3271.20;90.20;;;;;;5057794;28;20032;-73
2022/12/14 06:34:47;;;;;;;43.75;24.65;;;-3271.20;90.20;;;;;;5074388;28;20496;-74
2022/12/14 06:37:13;;;;;;;36.90;22.48;;;-3271.10;90.20;;;;;;5057558;28;20037;-73
2022/12/14 06:39:39;;;;;;;42.35;23.98;;;-3271.10;90.40;;;;;;5074137;28;20051;-73
2022/12/14 06:42:05;;;;;;;38.95;23.20;;;-3271.10;90.40;;;;;;5073970;28;20041;-74
2022/12/14 06:44:31;;;;;;;42.38;22.95;;;-3271.10;90.20;;;;;;5073944;28;20485;-73
2022/12/14 06:46:56;;;;;;;43.83;25.90;;;-3271.10;90.40;;;;;;5073885;28;20049;-74
2022/12/14 06:49:22;;;;;;;43.47;23.45;;;-3271.10;90.30;;;;;;5073931;28;20045;-74
2022/12/14 06:51:48;;;;;;;42.35;24.58;;;-3271.10;90.30;;;;;;5073816;28;20045;-74
2022/12/14 06:54:15;;;;;;;41.22;22.77;;;-3271.10;90.30;;;;;;5053937;28;20036;-74
2022/12/14 06:56:43;;;;;;;44.05;24.67;;;-3271.10;90.30;;;;;;5056162;28;20036;-74
2022/12/14 06:59:09;;;;;;;39.20;22.63;;;-3271.10;90.20;;;;;;5056503;28;20037;-74
2022/12/14 07:01:36;;;;;;;44.58;24.30;;;-3271.10;90.30;;;;;;5073297;28;20067;-74
2022/12/14 07:04:03;;;;;;;38.65;23.23;;;-3271.10;90.30;;;;;;5057164;28;20049;-74
2022/12/14 07:06:36;;;;;;;42.50;23.30;;;-3271.10;90.30;;;;;;5056713;28;20527;-73
2022/12/14 07:09:04;;;;;;;41.83;24.45;;;-3271.00;90.20;;;;;;5073403;28;20098;-74
2022/12/14 07:11:30;;;;;;;37.65;21.83;;;-3271.00;90.10;;;;;;5073595;28;20041;-74
2022/12/14 07:13:59;;;;;;;46.17;26.83;;;-3271.00;90.30;;;;;;5056721;28;20040;-74
2022/12/14 07:16:26;;;;;;;46.40;28.30;;;-3271.10;90.30;;;;;;5073378;28;20040;-74
2022/12/14 07:18:53;;;;;;;43.72;27.55;;;-3271.10;90.40;;;;;;5056969;28;20040;-74
2022/12/14 07:21:21;;;;;;;45.90;26.17;;;-3271.10;90.40;;;;;;5073252;28;20040;-74
2022/12/14 07:23:48;;;;;;;38.40;24.35;;;-3271.10;90.20;;;;;;5073272;28;20044;-75
2022/12/14 07:26:21;;;;;;;41.83;24.88;;;-3271.00;90.20;;;;;;5073088;28;20093;-74
2022/12/14 07:28:47;;;;;;;40.58;22.02;;;-3271.00;90.20;;;;;;5056182;28;20052;-73
2022/12/14 07:31:21;;;;;;;39.25;24.48;;;-3271.00;90.10;;;;;;5056276;28;20084;-74
2022/12/14 07:33:48;;;;;;;36.70;22.00;;;-3270.90;90.10;;;;;;5073160;28;20427;-73
2022/12/14 07:36:16;;;;;;;39.10;22.98;;;-3270.90;90.10;;;;;;5072756;28;20036;-74
2022/12/14 07:38:44;;;;;;;41.75;22.60;;;-3270.90;90.10;;;;;;5073071;28;20457;-74
2022/12/14 07:41:12;;;;;;;46.35;26.45;;;-3270.90;90.00;;;;;;5039528;28;20400;-75
2022/12/14 07:43:39;;;;;;;43.05;24.38;;;-3270.90;89.90;;;;;;5072238;28;20033;-74
2022/12/14 07:46:07;;;;;;;38.30;23.17;;;-3270.90;90.00;;;;;;5072186;28;20051;-73
2022/12/14 07:48:34;;;;;;;40.00;24.10;;;-3270.90;90.10;;;;;;5071987;28;20051;-73
2022/12/14 07:51:05;;;;;;;44.63;24.45;;;-3271.00;90.20;;;;;;5072572;28;20063;-73
2022/12/14 07:53:32;;;;;;;43.67;25.08;;;-3271.00;90.30;;;;;;5072615;28;20040;-74
2022/12/14 07:56:06;;;;;;;36.65;22.10;;;-3271.00;90.20;;;;;;5071935;28;20128;-73
2022/12/14 07:58:32;;;;;;;;;;;-3271.00;90.30;;;;;;5073317;28;20431;-74
2022/12/14 08:01:12;;;;;;;44.53;23.85;;;-3271.10;90.40;;;;;;5072320;28;19921;-74
2022/12/14 08:03:44;;;;;;;43.25;24.98;;;-3271.10;90.30;;;;;;5072607;28;20047;-73
2022/12/14 08:06:11;;;;;;;39.45;23.08;;;-3271.10;90.40;;;;;;5072151;28;20087;-74
2022/12/14 08:08:36;;;;;;;43.80;24.23;;;-3271.10;90.40;;;;;;5054738;28;20446;-74
2022/12/14 08:11:03;;;;;;;45.10;24.90;;;-3271.10;90.30;;;;;;5072153;28;20036;-74
2022/12/14 08:13:30;;;;;;;44.35;25.75;;;-3271.10;90.30;;;;;;5072290;28;20043;-74
2022/12/14 08:16:00;;;;;;;44.03;25.52;;;-3271.10;90.30;;;;;;5055575;28;20033;-74
2022/12/14 08:18:25;;;;;;;45.03;25.17;;;-3271.10;90.50;;;;;;5072387;28;20040;-73
2022/12/14 08:20:51;;;;;;;42.85;24.75;;;-3271.10;90.40;;;;;;5055794;28;20465;-74
2022/12/14 08:23:17;;;;;;;43.17;24.67;;;-3271.10;90.40;;;;;;5055794;28;20400;-74
2022/12/14 08:25:43;;;;;;;43.38;25.30;;;-3271.10;90.30;;;;;;5055415;28;20044;-73
2022/12/14 08:28:09;;;;;;;47.30;25.63;;;-3271.10;90.30;;;;;;5072109;28;20385;-74
2022/12/14 08:30:39;;;;;;;47.47;26.10;;;-3271.10;90.40;;;;;;5071882;28;20040;-73
2022/12/14 08:33:05;;;;;;;45.92;25.77;;;-3271.10;90.40;;;;;;5071974;28;20040;-73
2022/12/14 08:35:32;;;;;;;45.70;25.45;;;-3271.10;90.40;;;;;;5055730;28;20069;-73
2022/12/14 08:37:58;;;;;;;43.58;25.60;;;-3271.20;90.40;;;;;;5038697;28;20047;-73
2022/12/14 08:40:24;;;;;;;50.83;28.63;;;-3271.20;90.40;;;;;;5055071;28;20036;-73
2022/12/14 08:42:50;;;;;;;41.40;25.67;;;-3271.30;90.30;;;;;;5055328;28;20053;-73
2022/12/14 08:45:15;;;;;;;53.47;29.15;;;-3271.30;90.30;;;;;;5055192;28;20037;-72
2022/12/14 08:47:41;;;;;;;46.22;26.45;;;-3271.30;90.30;;;;;;5055040;28;20048;-73
2022/12/14 08:50:07;;;;;;;42.55;26.50;;;-3271.30;90.20;;;;;;5055221;28;20048;-74
2022/12/14 08:52:33;;;;;;;50.90;27.60;;;-3271.30;90.20;;;;;;5071919;28;20094;-74
2022/12/14 08:54:59;;;;;;;33.00;19.77;;;-3271.30;90.30;;;;;;5073331;28;20044;-73
2022/12/14 08:57:25;;;;;;;43.40;28.13;;;-3271.50;90.30;;;;;;5072053;28;20427;-73
2022/12/14 08:59:51;;;;;;;44.17;27.42;;;-3271.50;90.50;;;;;;5072228;28;20384;-73
2022/12/14 09:02:17;;;;;;;43.72;26.17;;;-3271.60;90.60;;;;;;5072478;28;20056;-73
2022/12/14 09:04:42;;;;;;;52.78;29.88;;;-3271.70;90.60;;;;;;5072325;28;20118;-73
2022/12/14 09:07:08;;;;;;;45.28;26.98;;;-3271.70;90.70;;;;;;5071715;28;20076;-73
2022/12/14 09:09:36;;;;;;;39.50;25.50;;;-3271.80;90.90;;;;;;5038258;28;20044;-73
2022/12/14 09:12:05;;;;;;;41.30;26.35;;;-3271.90;91.00;;;;;;5071609;28;20044;-72
2022/12/14 09:14:32;;;;;;;40.28;24.13;;;-3272.00;91.00;;;;;;5071774;28;20115;-73
2022/12/14 09:16:58;;;;;;;43.22;24.27;;;-3272.00;91.00;;;;;;5071787;28;20045;-72
2022/12/14 09:19:24;;;;;;;45.50;24.35;;;-3272.00;90.90;;;;;;5054884;28;20178;-72
2022/12/14 09:21:50;;;;;;;46.50;27.00;;;-3272.10;90.80;;;;;;5055206;28;20135;-73
2022/12/14 09:24:15;;;;;;;43.95;27.73;;;-3272.10;91.10;;;;;;5054828;28;20040;-73
2022/12/14 09:26:41;;;;;;;43.47;26.83;;;-3272.20;91.20;;;;;;5054537;28;20045;-72
2022/12/14 09:29:12;;;;;;;41.63;24.55;;;-3272.30;91.20;;;;;;5054938;28;20045;-73
2022/12/14 09:31:37;;;;;;;41.65;23.88;;;-3272.40;91.20;;;;;;5071502;28;20110;-73
2022/12/14 09:34:03;;;;;;;45.42;24.67;;;-3272.50;91.20;;;;;;5071630;28;20044;-73
2022/12/14 09:36:29;;;;;;;45.35;25.95;;;-3272.50;91.20;;;;;;5054764;28;20131;-73
2022/12/14 09:38:56;;;;;;;50.78;28.15;;;-3272.60;91.20;;;;;;5070639;28;20068;-72
2022/12/14 09:41:34;;;;;;;50.70;27.58;;;-3272.60;91.20;;;;;;5064813;28;20102;-73
2022/12/14 09:44:35;;;;;;;47.47;26.70;;;-3272.70;91.10;;;;;;5057162;28;20041;-73
2022/12/14 09:47:30;;;;;;;43.85;26.05;;;-3272.80;91.10;;;;;;5051128;28;20049;-73
2022/12/14 09:50:11;;;;;;;40.38;25.92;;;-3272.90;91.20;;;;;;5060274;28;20070;-72
2022/12/14 09:52:53;;;;;;;55.58;30.20;;;-3273.00;91.00;;;;;;5074968;28;20488;-73
2022/12/14 09:55:30;;;;;;;47.25;27.17;;;-3273.00;90.90;;;;;;5058376;28;20051;-73
2022/12/14 09:58:00;;;;;;;48.80;26.67;;;-3273.10;90.90;;;;;;5075120;28;20131;-73
2022/12/14 10:00:53;;;;;;;44.67;25.90;;;-3273.20;91.00;;;;;;5054666;28;20102;-72
2022/12/14 10:03:40;;;;;;;42.65;25.33;;;-3273.30;91.10;;;;;;5058737;28;20416;-73
2022/12/14 10:06:15;;;;;;;44.13;24.10;;;-3273.50;91.20;;;;;;5049261;28;20041;-73
2022/12/14 10:08:48;;;;;;;39.10;23.05;;;-3273.60;91.10;;;;;;5046204;28;20037;-72
2022/12/14 10:11:33;;;;;;;40.08;23.08;;;-3273.70;91.00;;;;;;5054562;28;20076;-73
2022/12/14 10:14:41;;;;;;;39.83;22.77;;;-3273.80;91.00;;;;;;5038250;28;20064;-73
2022/12/14 10:17:33;;;;;;;37.70;21.70;;;-3273.90;90.80;;;;;;5054819;28;20064;-74
2022/12/14 10:20:13;;;;;;;38.42;23.40;;;-3274.00;90.50;;;;;;5054665;28;20045;-73
2022/12/14 10:22:44;;;;;;;41.58;25.58;;;-3274.10;90.50;;;;;;5054692;28;20075;-73
2022/12/14 10:25:25;;;;;;;37.88;21.60;;;-3274.20;90.30;;;;;;5054590;28;20029;-73
2022/12/14 10:27:59;;;;;;;37.67;22.27;;;-3274.30;90.20;;;;;;5054158;28;20076;-73
2022/12/14 10:30:24;;;;;;;37.17;22.20;;;-3274.40;90.20;;;;;;5037581;28;20551;-73
2022/12/14 10:33:04;;;;;;;40.40;21.55;;;-3274.50;90.00;;;;;;5039977;28;20072;-72
2022/12/14 10:35:49;;;;;;;36.03;19.23;;;-3274.60;90.20;;;;;;5072784;28;20032;-73
2022/12/14 10:38:33;;;;;;;;;;;-3274.60;89.90;;;;;;5058196;28;20388;-73
2022/12/14 10:41:14;;;;;;;34.67;19.10;;;-3274.80;89.60;;;;;;5057498;28;19946;-73
2022/12/14 10:43:53;;;;;;;30.77;18.00;;;-3274.90;89.50;;;;;;5074146;28;20361;-74
2022/12/14 10:46:33;;;;;;;31.45;19.27;;;-3275.00;89.60;;;;;;5057390;28;20074;-74
2022/12/14 10:49:25;;;;;;;30.60;18.95;;;-3275.10;89.10;;;;;;5073927;28;20048;-74
2022/12/14 10:52:01;;;;;;;31.58;17.02;;;-3275.10;89.10;;;;;;5073642;28;20044;-75
2022/12/14 10:54:49;;;;;;;48.88;24.73;;;-3275.20;88.60;;;;;;5073539;28;20036;-76
2022/12/14 10:57:25;;;;;;;36.40;18.85;;;-3275.30;88.40;;;;;;5057043;28;20041;-77
2022/12/14 10:59:51;;;;;;;34.13;18.10;;;-3275.50;88.60;;;;;;5073306;28;20040;-77
2022/12/14 11:02:26;;;;;;;37.63;20.95;;;-3275.50;88.40;;;;;;5073004;28;20105;-76
2022/12/14 11:05:02;;;;;;;35.75;19.58;;;-3275.60;87.90;;;;;;5074541;28;20040;-76
2022/12/14 11:07:31;;;;;;;60.67;29.17;;;-3275.70;87.80;;;;;;5074517;28;20049;-76
2022/12/14 11:10:23;;;;;;;60.55;33.47;;;-3275.80;87.50;;;;;;5057699;28;20374;-76
2022/12/14 11:13:04;;;;;;;43.28;24.45;;;-3276.00;87.50;;;;;;5057861;28;20350;-77
2022/12/14 11:15:40;;;;;;;36.60;22.40;;;-3276.10;87.10;;;;;;5074186;28;20093;-79
2022/12/14 11:18:14;;;;;;;31.98;20.27;;;-3276.30;87.20;;;;;;5057963;28;20424;-80
2022/12/14 11:20:59;;;;;;;50.63;28.08;;;-3276.30;87.50;;;;;;5073981;28;20094;-78
2022/12/14 11:23:41;;;;;;;37.65;20.02;;;-3276.40;86.80;;;;;;5057494;28;20044;-79
2022/12/14 11:26:32;;;;;;;37.60;21.48;;;-3276.50;85.80;;;;;;5053816;28;20051;-81
2022/12/14 11:29:00;;;;;;;32.20;19.30;;;-3276.60;86.00;;;;;;5035392;28;20044;-76
2022/12/14 11:31:26;;;;;;;27.75;15.35;;;-3276.70;86.70;;;;;;5052888;28;20041;-78
2022/12/14 11:33:57;;;;;;;24.88;15.50;;;0.00;86.60;;;;;;5058511;28;20036;-78
2022/12/14 11:36:25;;;;;;;26.88;15.50;;;0.00;84.80;;;;;;5055068;28;20388;-76
2022/12/14 11:39:01;;;;;;;25.55;16.35;;;0.10;85.30;;;;;;5054157;28;20040;-79
2022/12/14 11:41:34;;;;;;;25.58;16.23;;;0.20;84.80;;;;;;5054581;28;20056;-79
2022/12/14 11:44:19;;;;;;;26.50;14.30;;;0.30;84.30;;;;;;5056226;28;20101;-80
2022/12/14 11:46:56;;;;;;;26.08;15.63;;;0.40;83.00;;;;;;5072863;28;20045;-80
2022/12/14 11:49:44;;;;;;;25.73;14.82;;;0.50;82.50;;;;;;5072936;28;20075;-79
2022/12/14 11:52:18;;;;;;;27.48;16.33;;;0.60;82.20;;;;;;5056137;28;20037;-78
2022/12/14 11:54:45;;;;;;;30.70;17.85;;;0.70;82.30;;;;;;5056238;28;20051;-78
2022/12/14 11:57:11;;;;;;;29.60;18.55;;;0.80;82.00;;;;;;5072548;28;20041;-76
2022/12/14 11:59:44;;;;;;;33.55;20.48;;;1.10;82.00;;;;;;5055710;28;20085;-77
2022/12/14 12:02:13;;;;;;;35.67;22.05;;;1.20;81.80;;;;;;5071024;28;20527;-77
2022/12/14 12:04:48;;;;;;;25.85;16.35;;;1.50;81.00;;;;;;5070897;28;20053;-78
2022/12/14 12:07:27;;;;;;;26.85;16.80;;;1.70;81.40;;;;;;5072104;28;20516;-78
2022/12/14 12:09:53;;;;;;;26.45;16.38;;;1.80;80.60;;;;;;5072208;28;20048;-77
2022/12/14 12:12:22;;;;;;;24.80;16.77;;;1.90;80.10;;;;;;5055138;28;20085;-78
2022/12/14 12:14:54;;;;;;;26.75;17.58;;;2.00;79.80;;;;;;5070971;28;20044;-76
2022/12/14 12:17:40;;;;;;;25.65;16.77;;;2.10;79.00;;;;;;5072528;28;20040;-76
2022/12/14 12:20:38;;;;;;;26.98;16.88;;;2.20;78.80;;;;;;5072227;28;20044;-78
2022/12/14 12:23:12;;;;;;;26.17;16.52;;;2.40;78.10;;;;;;5055924;28;20032;-78
2022/12/14 12:25:40;;;;;;;19.50;13.93;;;2.40;77.60;;;;;;5055788;28;20141;-78
2022/12/14 12:28:17;;;;;;;23.83;14.32;;;2.60;77.10;;;;;;5055542;28;20392;-79
2022/12/14 12:30:48;;;;;;;21.25;14.35;;;2.70;77.20;;;;;;5071977;28;20547;-76
2022/12/14 12:33:23;;;;;;;21.83;13.52;;;2.90;76.70;;;;;;5072071;28;20508;-78
2022/12/14 12:35:52;;;;;;;19.02;12.80;;;3.10;76.00;;;;;;5055513;28;20044;-78
2022/12/14 12:38:32;;;;;;;19.98;12.75;;;3.40;75.80;;;;;;5071917;28;20044;-77
2022/12/14 12:41:17;;;;;;;19.52;12.55;;;3.50;73.20;;;;;;5071953;28;20480;-79
2022/12/14 12:43:47;;;;;;;;;;;3.60;74.50;;;;;;5055627;28;20044;-76
2022/12/14 12:46:27;;;;;;;17.75;11.75;;;3.70;73.80;;;;;;5071990;28;20323;-75
2022/12/14 12:49:01;;;;;;;17.65;11.70;;;3.80;73.90;;;;;;5071835;28;20045;-78
2022/12/14 12:51:48;;;;;;;33.80;22.20;;;3.90;72.40;;;;;;5071965;28;20086;-78
2022/12/14 12:54:21;;;;;;;19.63;13.77;;;4.10;73.30;;;;;;5072007;28;20029;-77
2022/12/14 12:56:50;;;;;;;21.83;14.38;;;3.90;69.00;;;;;;5055371;28;20051;-77
2022/12/14 12:59:35;;;;;;;15.38;11.30;;;4.00;69.50;;;;;;5071666;28;20041;-78
2022/12/14 13:02:20;;;;;;;15.93;10.38;;;4.10;72.50;;;;;;5071428;28;20142;-79
2022/12/14 13:04:48;;;;;;;17.58;11.77;;;4.30;70.10;;;;;;5054904;28;20086;-78
2022/12/14 13:07:32;;;;;;;17.58;11.15;;;4.50;69.80;;;;;;5071974;28;20416;-78
2022/12/14 13:10:23;;;;;;;17.83;11.52;;;4.30;69.90;;;;;;5071479;28;20109;-79
2022/12/14 13:13:04;;;;;;;16.98;11.45;;;4.50;68.40;;;;;;5054071;28;20044;-78
2022/12/14 13:15:39;;;;;;;17.70;12.30;;;4.80;68.90;;;;;;5071495;28;20036;-76
2022/12/14 13:18:23;;;;;;;17.17;11.48;;;4.90;70.80;;;;;;5071517;28;20127;-80
2022/12/14 13:20:50;;;;;;;15.32;11.43;;;4.90;69.60;;;;;;5054707;28;20048;-78